createdAt,value
2022-10-23T00:00:38.373Z,5.82
2022-10-23T00:03:05.836Z,6.13
2022-10-23T00:05:32.655Z,6.55
2022-10-23T00:08:00.684Z,5.43
2022-10-23T00:10:28.288Z,5.95
2022-10-23T00:12:54.989Z,6.13
2022-10-23T00:15:23.098Z,5.68
2022-10-23T00:17:50.153Z,5.43
2022-10-23T00:20:17.866Z,5.40
2022-10-23T00:22:44.579Z,4.70
2022-10-23T00:25:11.455Z,5.68
2022-10-23T00:27:38.080Z,5.47
2022-10-23T00:30:05.553Z,5.75
2022-10-23T00:35:04.353Z,5.70
2022-10-23T00:37:30.986Z,5.40
2022-10-23T00:39:57.982Z,5.47
2022-10-23T00:42:24.802Z,5.38
2022-10-23T00:44:51.306Z,5.18
2022-10-23T00:47:18.343Z,5.40
2022-10-23T00:49:45.119Z,4.85
2022-10-23T00:52:13.161Z,5.32
2022-10-23T00:54:42.916Z,5.70
2022-10-23T00:57:13.624Z,5.13
2022-10-23T00:59:40.789Z,5.28
2022-10-23T01:02:08.340Z,5.55
2022-10-23T01:04:35.974Z,5.57
2022-10-23T01:07:15.185Z,4.63
2022-10-23T01:10:14.214Z,5.00
2022-10-23T01:13:02.622Z,5.30
2022-10-23T01:15:44.236Z,5.97
2022-10-23T01:18:24.894Z,6.35
2022-10-23T01:21:39.197Z,6.15
2022-10-23T01:24:31.682Z,5.72
2022-10-23T01:27:19.363Z,6.60
2022-10-23T01:30:04.526Z,7.15
2022-10-23T01:32:58.090Z,7.25
2022-10-23T01:35:40.598Z,7.05
2022-10-23T01:38:18.519Z,7.20
2022-10-23T01:40:55.310Z,7.43
2022-10-23T01:43:30.215Z,7.32
2022-10-23T01:46:02.017Z,6.97
2022-10-23T01:48:30.847Z,6.72
2022-10-23T01:51:00.561Z,6.82
2022-10-23T01:53:31.137Z,6.43
2022-10-23T01:56:00.980Z,7.05
2022-10-23T01:58:29.626Z,7.28
2022-10-23T02:01:01.285Z,8.32
2022-10-23T02:03:33.019Z,7.10
2022-10-23T02:05:59.698Z,7.68
2022-10-23T02:08:26.374Z,8.48
2022-10-23T02:11:06.298Z,8.57
2022-10-23T02:14:07.781Z,8.43
2022-10-23T02:16:54.379Z,7.55
2022-10-23T02:19:46.835Z,8.00
2022-10-23T02:22:26.598Z,8.00
2022-10-23T02:24:59.740Z,7.53
2022-10-23T02:27:35.863Z,8.20
2022-10-23T02:30:06.410Z,8.85
2022-10-23T02:32:36.557Z,8.75
2022-10-23T02:35:04.338Z,9.57
2022-10-23T02:37:30.977Z,9.13
2022-10-23T02:39:57.862Z,9.45
2022-10-23T02:42:36.538Z,10.65
2022-10-23T02:45:06.451Z,11.50
2022-10-23T02:47:59.517Z,11.15
2022-10-23T02:50:32.482Z,10.75
2022-10-23T02:53:25.438Z,10.80
2022-10-23T02:56:10.444Z,11.40
2022-10-23T02:58:44.802Z,10.32
2022-10-23T03:01:22.389Z,10.32
2022-10-23T03:03:54.601Z,9.23
2022-10-23T03:06:22.888Z,8.75
2022-10-23T03:09:07.036Z,10.13
2022-10-23T03:11:34.070Z,9.63
2022-10-23T03:14:00.678Z,9.77
2022-10-23T03:16:27.762Z,9.73
2022-10-23T03:18:55.426Z,11.32
2022-10-23T03:21:22.756Z,11.50
2022-10-23T03:23:52.390Z,12.00
2022-10-23T03:26:25.668Z,10.32
2022-10-23T03:28:52.219Z,10.55
2022-10-23T03:31:20.645Z,10.45
2022-10-23T03:33:49.666Z,10.68
2022-10-23T03:36:16.322Z,10.82
2022-10-23T03:38:44.152Z,11.82
2022-10-23T03:41:10.820Z,10.90
2022-10-23T03:43:37.467Z,11.57
2022-10-23T03:46:09.089Z,11.23
2022-10-23T03:48:38.167Z,11.02
2022-10-23T03:51:05.971Z,9.90
2022-10-23T03:53:32.586Z,11.65
2022-10-23T03:56:03.738Z,10.98
2022-10-23T03:58:31.445Z,10.80
2022-10-23T04:00:58.361Z,10.45
2022-10-23T04:03:25.133Z,10.25
2022-10-23T04:05:52.375Z,11.00
2022-10-23T04:08:21.590Z,10.85
2022-10-23T04:10:51.468Z,10.10
2022-10-23T04:13:21.712Z,11.43
2022-10-23T04:15:49.619Z,10.88
2022-10-23T04:18:17.133Z,11.63
2022-10-23T04:20:44.726Z,11.00
2022-10-23T04:23:11.347Z,11.85
2022-10-23T04:25:40.780Z,10.27
2022-10-23T04:28:08.053Z,11.35
2022-10-23T04:30:38.148Z,11.10
2022-10-23T04:33:05.688Z,10.32
2022-10-23T04:35:33.154Z,9.80
2022-10-23T04:37:59.712Z,9.43
2022-10-23T04:40:26.368Z,10.00
2022-10-23T04:42:54.570Z,9.70
2022-10-23T04:45:21.421Z,9.70
2022-10-23T04:47:48.009Z,8.85
2022-10-23T04:50:15.212Z,9.05
2022-10-23T04:53:00.252Z,9.27
2022-10-23T04:55:54.751Z,10.02
2022-10-23T04:58:35.899Z,8.90
2022-10-23T05:01:02.585Z,8.10
2022-10-23T05:03:29.481Z,8.35
2022-10-23T05:05:56.666Z,8.30
2022-10-23T05:08:29.949Z,8.52
2022-10-23T05:11:12.001Z,9.25
2022-10-23T05:13:43.454Z,9.60
2022-10-23T05:16:10.402Z,11.90
2022-10-23T05:18:45.552Z,12.07
2022-10-23T05:21:19.545Z,13.07
2022-10-23T05:23:49.493Z,12.20
2022-10-23T05:26:16.379Z,11.55
2022-10-23T05:28:45.518Z,12.38
2022-10-23T05:31:15.643Z,12.18
2022-10-23T05:33:45.730Z,13.40
2022-10-23T05:36:14.022Z,11.98
2022-10-23T05:38:41.124Z,11.48
2022-10-23T05:41:14.196Z,9.95
2022-10-23T05:43:40.898Z,11.00
2022-10-23T05:46:30.109Z,10.38
2022-10-23T05:49:14.580Z,10.43
2022-10-23T05:51:59.887Z,9.10
2022-10-23T05:54:53.042Z,11.63
2022-10-23T05:57:23.802Z,11.68
2022-10-23T05:59:52.307Z,12.45
2022-10-23T06:02:37.685Z,12.68
2022-10-23T06:05:12.067Z,13.02
2022-10-23T06:07:50.406Z,12.73
2022-10-23T06:10:18.505Z,12.23
2022-10-23T06:12:47.366Z,12.85
2022-10-23T06:15:16.669Z,12.05
2022-10-23T06:18:01.982Z,11.45
2022-10-23T06:20:30.551Z,12.30
2022-10-23T06:23:07.283Z,11.15
2022-10-23T06:25:54.582Z,11.38
2022-10-23T06:28:26.136Z,11.38
2022-10-23T06:30:52.868Z,11.48
2022-10-23T06:33:19.672Z,12.10
2022-10-23T06:35:46.907Z,11.82
2022-10-23T06:38:14.289Z,12.32
2022-10-23T06:40:53.973Z,10.88
2022-10-23T06:43:27.173Z,11.80
2022-10-23T06:46:18.219Z,10.85
2022-10-23T06:49:03.860Z,14.00
2022-10-23T06:51:35.434Z,14.32
2022-10-23T06:54:03.778Z,15.80
2022-10-23T06:56:51.169Z,13.95
2022-10-23T06:59:22.058Z,13.93
2022-10-23T07:01:51.090Z,13.77
2022-10-23T07:04:18.217Z,13.32
2022-10-23T07:06:44.937Z,14.35
2022-10-23T07:09:11.792Z,13.82
2022-10-23T07:12:08.679Z,13.57
2022-10-23T07:14:45.034Z,13.65
2022-10-23T07:17:12.308Z,12.27
2022-10-23T07:19:39.149Z,11.95
2022-10-23T07:22:13.306Z,11.43
2022-10-23T07:24:50.184Z,10.77
2022-10-23T07:27:25.902Z,10.85
2022-10-23T07:29:56.293Z,10.35
2022-10-23T07:32:24.573Z,10.75
2022-10-23T07:37:53.301Z,10.43
2022-10-23T07:40:20.238Z,10.55
2022-10-23T07:42:47.053Z,9.90
2022-10-23T07:45:14.996Z,9.77
2022-10-23T07:47:49.799Z,9.63
2022-10-23T07:50:18.222Z,9.07
2022-10-23T07:52:45.255Z,9.30
2022-10-23T07:55:14.274Z,9.32
2022-10-23T07:57:47.544Z,8.55
2022-10-23T08:03:07.505Z,8.18
2022-10-23T08:05:34.538Z,7.88
2022-10-23T08:08:03.650Z,7.10
2022-10-23T08:10:30.870Z,7.07
2022-10-23T08:12:58.618Z,6.93
2022-10-23T08:15:45.169Z,7.20
2022-10-23T08:18:30.092Z,7.15
2022-10-23T08:21:02.190Z,7.60
2022-10-23T08:23:29.737Z,7.07
2022-10-23T08:26:01.490Z,7.03
2022-10-23T08:28:30.667Z,7.07
2022-10-23T08:30:59.179Z,7.47
2022-10-23T08:33:26.039Z,7.88
2022-10-23T08:35:53.049Z,7.68
2022-10-23T08:38:28.234Z,7.03
2022-10-23T08:40:55.282Z,7.30
2022-10-23T08:43:56.426Z,7.13
2022-10-23T08:46:37.426Z,5.70
2022-10-23T08:49:51.786Z,5.50
2022-10-23T08:52:41.618Z,5.20
2022-10-23T08:55:29.954Z,5.45
2022-10-23T08:58:15.894Z,4.88
2022-10-23T09:00:43.564Z,4.65
2022-10-23T09:03:12.807Z,6.10
2022-10-23T09:05:56.969Z,5.22
2022-10-23T09:08:40.639Z,5.60
2022-10-23T09:11:18.555Z,5.72
2022-10-23T09:14:25.073Z,5.05
2022-10-23T09:17:08.479Z,5.45
2022-10-23T09:19:35.198Z,4.63
2022-10-23T09:22:02.084Z,6.30
2022-10-23T09:24:33.416Z,6.00
2022-10-23T09:27:00.736Z,5.97
2022-10-23T09:29:35.699Z,5.85
2022-10-23T09:32:05.308Z,6.35
2022-10-23T09:34:46.718Z,5.95
2022-10-23T09:37:31.378Z,6.13
2022-10-23T09:40:19.000Z,6.00
2022-10-23T09:43:01.030Z,5.38
2022-10-23T09:45:32.400Z,5.68
2022-10-23T09:48:19.305Z,5.72
2022-10-23T09:51:17.011Z,5.32
2022-10-23T09:53:53.913Z,5.53
2022-10-23T09:56:36.092Z,5.50
2022-10-23T09:59:10.669Z,4.35
2022-10-23T10:01:54.766Z,4.90
2022-10-23T10:04:41.777Z,3.80
2022-10-23T10:07:23.971Z,4.45
2022-10-23T10:09:53.258Z,4.60
2022-10-23T10:12:29.036Z,4.28
2022-10-23T10:15:00.043Z,4.53
2022-10-23T10:17:58.690Z,3.58
2022-10-23T10:20:57.801Z,3.70
2022-10-23T10:23:34.804Z,4.70
2022-10-23T10:26:32.411Z,3.92
2022-10-23T10:29:11.277Z,4.38
2022-10-23T10:32:16.223Z,3.72
2022-10-23T10:34:58.240Z,3.70
2022-10-23T10:37:49.570Z,3.97
2022-10-23T10:40:34.896Z,4.32
2022-10-23T10:43:35.060Z,4.00
2022-10-23T10:46:20.289Z,4.00
2022-10-23T10:49:04.270Z,3.28
2022-10-23T10:51:52.838Z,3.92
2022-10-23T10:54:56.541Z,3.85
2022-10-23T10:57:36.732Z,4.30
2022-10-23T11:00:16.984Z,3.95
2022-10-23T11:02:48.053Z,3.75
2022-10-23T11:05:31.151Z,4.07
2022-10-23T11:08:27.797Z,3.60
2022-10-23T11:11:02.167Z,3.35
2022-10-23T11:13:40.222Z,3.50
2022-10-23T11:16:29.893Z,4.18
2022-10-23T11:19:09.939Z,4.25
2022-10-23T11:21:50.414Z,4.03
2022-10-23T11:24:43.174Z,3.47
2022-10-23T11:27:40.249Z,3.88
2022-10-23T11:30:19.044Z,3.50
2022-10-23T11:33:13.969Z,3.45
2022-10-23T11:36:05.965Z,3.05
2022-10-23T11:38:38.518Z,3.30
2022-10-23T11:41:19.909Z,3.30
2022-10-23T11:44:04.015Z,3.00
2022-10-23T11:46:35.642Z,3.17
2022-10-23T11:49:06.189Z,3.15
2022-10-23T11:51:35.793Z,2.50
2022-10-23T11:54:11.298Z,2.88
2022-10-23T11:56:50.373Z,2.63
2022-10-23T11:59:31.659Z,2.40
2022-10-23T12:02:18.917Z,2.70
2022-10-23T12:04:51.769Z,2.70
2022-10-23T12:07:26.830Z,2.40
2022-10-23T12:10:03.404Z,2.70
2022-10-23T12:15:16.509Z,2.35
2022-10-23T12:17:44.389Z,2.10
2022-10-23T12:20:11.502Z,2.75
2022-10-23T12:23:08.240Z,2.30
2022-10-23T12:26:00.137Z,2.85
2022-10-23T12:28:38.773Z,2.30
2022-10-23T12:31:16.150Z,2.70
2022-10-23T12:33:52.845Z,2.30
2022-10-23T12:39:02.083Z,2.20
2022-10-23T12:41:30.600Z,2.40
2022-10-23T12:44:00.512Z,2.40
2022-10-23T12:46:40.013Z,2.83
2022-10-23T12:49:18.957Z,2.25
2022-10-23T12:51:46.136Z,2.60
2022-10-23T12:54:18.194Z,2.40
2022-10-23T12:56:45.441Z,2.70
2022-10-23T12:59:26.792Z,2.92
2022-10-23T13:01:54.745Z,2.28
2022-10-23T13:04:34.324Z,2.60
2022-10-23T13:07:03.387Z,2.85
2022-10-23T13:09:42.695Z,2.63
2022-10-23T13:12:27.968Z,2.95
2022-10-23T13:15:14.389Z,2.92
2022-10-23T13:17:43.048Z,2.55
2022-10-23T13:20:18.697Z,2.65
2022-10-23T13:22:48.139Z,2.55
2022-10-23T13:25:26.687Z,2.75
2022-10-23T13:28:14.786Z,2.25
2022-10-23T13:30:46.052Z,2.20
2022-10-23T13:33:39.741Z,2.28
2022-10-23T13:36:16.481Z,2.38
2022-10-23T13:38:58.975Z,2.40
2022-10-23T13:41:27.088Z,2.25
2022-10-23T13:43:53.716Z,2.83
2022-10-23T13:46:22.319Z,2.78
2022-10-23T13:48:49.224Z,2.53
2022-10-23T13:51:21.333Z,3.47
2022-10-23T13:53:48.254Z,2.80
2022-10-23T13:56:16.633Z,2.72
2022-10-23T13:58:43.302Z,2.45
2022-10-23T14:01:27.523Z,3.10
2022-10-23T14:03:55.598Z,2.80
2022-10-23T14:06:22.288Z,2.80
2022-10-23T14:08:49.028Z,2.95
2022-10-23T14:11:17.440Z,2.40
2022-10-23T14:13:44.257Z,2.60
2022-10-23T14:16:14.218Z,2.75
2022-10-23T14:18:41.026Z,2.55
2022-10-23T14:21:10.511Z,3.00
2022-10-23T14:23:37.088Z,2.88
2022-10-23T14:26:05.268Z,3.10
2022-10-23T14:28:32.412Z,2.65
2022-10-23T14:31:11.272Z,3.33
2022-10-23T14:33:38.703Z,3.15
2022-10-23T14:36:05.675Z,2.47
2022-10-23T14:38:33.640Z,2.90
2022-10-23T14:41:01.690Z,2.70
2022-10-23T14:43:28.698Z,3.20
2022-10-23T14:45:55.530Z,3.35
2022-10-23T14:48:22.230Z,3.13
2022-10-23T14:50:49.448Z,3.75
2022-10-23T14:53:16.498Z,3.75
2022-10-23T14:55:43.384Z,3.50
2022-10-23T14:58:10.232Z,3.30
2022-10-23T15:00:36.959Z,3.63
2022-10-23T15:03:03.756Z,3.72
2022-10-23T15:05:30.850Z,3.63
2022-10-23T15:07:58.957Z,3.70
2022-10-23T15:10:25.697Z,3.40
2022-10-23T15:12:52.508Z,3.40
2022-10-23T15:15:19.292Z,3.25
2022-10-23T15:17:45.976Z,3.53
2022-10-23T15:20:12.664Z,3.42
2022-10-23T15:22:39.572Z,2.92
2022-10-23T15:25:07.262Z,3.17
2022-10-23T15:27:34.658Z,2.83
2022-10-23T15:30:01.368Z,3.13
2022-10-23T15:32:28.057Z,2.50
2022-10-23T15:34:55.400Z,2.88
2022-10-23T15:37:22.579Z,2.75
2022-10-23T15:39:49.649Z,2.50
2022-10-23T15:42:19.133Z,2.72
2022-10-23T15:44:45.865Z,2.80
2022-10-23T15:47:12.685Z,3.20
2022-10-23T15:49:39.871Z,3.00
2022-10-23T15:54:36.316Z,2.97
2022-10-23T15:57:03.588Z,2.80
2022-10-23T15:59:31.429Z,3.50
2022-10-23T16:01:58.243Z,3.40
2022-10-23T16:04:25.019Z,3.40
2022-10-23T16:06:51.601Z,3.10
2022-10-23T16:09:18.613Z,3.03
2022-10-23T16:11:45.540Z,2.70
2022-10-23T16:14:15.746Z,2.50
2022-10-23T16:16:42.429Z,2.83
2022-10-23T16:19:10.587Z,2.33
2022-10-23T16:21:37.317Z,2.50
2022-10-23T16:24:07.046Z,3.20
2022-10-23T16:26:34.779Z,2.55
2022-10-23T16:29:04.349Z,2.60
2022-10-23T16:31:31.402Z,2.45
2022-10-23T16:34:02.731Z,2.70
2022-10-23T16:36:29.618Z,2.25
2022-10-23T16:39:11.076Z,2.65
2022-10-23T16:41:56.418Z,2.72
2022-10-23T16:44:27.408Z,2.50
2022-10-23T16:46:59.003Z,2.70
2022-10-23T16:49:25.642Z,2.60
2022-10-23T16:51:52.290Z,2.53
2022-10-23T16:54:19.017Z,3.13
2022-10-23T16:56:45.696Z,2.80
2022-10-23T16:59:12.265Z,3.00
2022-10-23T17:01:39.172Z,2.83
2022-10-23T17:04:08.177Z,2.78
2022-10-23T17:06:35.131Z,2.75
2022-10-23T17:09:03.898Z,3.80
2022-10-23T17:11:33.321Z,2.83
2022-10-23T17:14:11.242Z,2.92
2022-10-23T17:16:40.261Z,3.35
2022-10-23T17:19:20.627Z,3.55
2022-10-23T17:21:56.290Z,2.72
2022-10-23T17:24:23.910Z,2.97
2022-10-23T17:26:50.912Z,2.95
2022-10-23T17:29:18.322Z,3.30
2022-10-23T17:31:50.074Z,3.30
2022-10-23T17:34:20.670Z,3.60
2022-10-23T17:36:51.364Z,3.65
2022-10-23T17:39:21.605Z,3.20
2022-10-23T17:41:48.554Z,3.63
2022-10-23T17:44:15.772Z,3.30
2022-10-23T17:46:42.374Z,4.03
2022-10-23T17:49:10.385Z,3.88
2022-10-23T17:51:37.053Z,3.60
2022-10-23T17:54:08.587Z,3.50
2022-10-23T17:56:37.520Z,3.60
2022-10-23T17:59:12.631Z,3.67
2022-10-23T18:01:39.690Z,3.58
2022-10-23T18:04:07.658Z,3.70
2022-10-23T18:06:40.086Z,3.83
2022-10-23T18:09:07.166Z,3.42
2022-10-23T18:11:36.194Z,4.00
2022-10-23T18:14:03.607Z,3.55
2022-10-23T18:16:30.478Z,3.80
2022-10-23T18:18:59.745Z,3.80
2022-10-23T18:21:27.296Z,3.70
2022-10-23T18:23:54.050Z,4.13
2022-10-23T18:26:23.641Z,3.97
2022-10-23T18:28:53.571Z,3.80
2022-10-23T18:31:21.413Z,3.92
2022-10-23T18:33:48.214Z,3.58
2022-10-23T18:36:23.597Z,3.55
2022-10-23T18:38:51.289Z,3.70
2022-10-23T18:41:19.517Z,3.28
2022-10-23T18:43:46.587Z,4.00
2022-10-23T18:46:14.273Z,3.30
2022-10-23T18:48:42.277Z,3.40
2022-10-23T18:51:23.912Z,3.17
2022-10-23T18:53:52.731Z,2.90
2022-10-23T18:56:23.130Z,3.35
2022-10-23T18:58:55.551Z,3.33
2022-10-23T19:01:23.746Z,3.47
2022-10-23T19:03:50.688Z,3.15
2022-10-23T19:06:18.045Z,3.20
2022-10-23T19:08:45.390Z,3.00
2022-10-23T19:11:13.686Z,3.10
2022-10-23T19:13:41.301Z,2.92
2022-10-23T19:16:13.822Z,3.03
2022-10-23T19:18:45.717Z,2.63
2022-10-23T19:21:13.042Z,3.33
2022-10-23T19:23:41.640Z,3.50
2022-10-23T19:26:11.895Z,3.80
2022-10-23T19:28:44.207Z,3.75
2022-10-23T19:31:11.701Z,3.55
2022-10-23T19:33:38.972Z,3.35
2022-10-23T19:36:08.841Z,4.50
2022-10-23T19:38:40.228Z,5.50
2022-10-23T19:41:07.325Z,5.30
2022-10-23T19:43:34.131Z,6.45
2022-10-23T19:46:04.993Z,6.85
2022-10-23T19:48:34.509Z,6.35
2022-10-23T19:51:01.554Z,5.20
2022-10-23T19:53:28.249Z,6.28
2022-10-23T19:56:06.796Z,6.18
2022-10-23T19:58:33.466Z,7.00
2022-10-23T20:01:10.919Z,6.60
2022-10-23T20:03:38.521Z,11.50
2022-10-23T20:06:13.404Z,12.55
2022-10-23T20:08:40.868Z,9.82
2022-10-23T20:11:09.120Z,11.23
2022-10-23T20:13:36.288Z,11.23
2022-10-23T20:16:03.454Z,10.55
2022-10-23T20:18:30.104Z,9.70
2022-10-23T20:20:56.822Z,10.35
2022-10-23T20:23:23.457Z,9.05
2022-10-23T20:25:50.126Z,9.00
2022-10-23T20:28:16.930Z,9.13
2022-10-23T20:30:45.443Z,9.85
2022-10-23T20:33:12.109Z,9.52
2022-10-23T20:35:42.795Z,9.73
2022-10-23T20:38:09.996Z,9.60
2022-10-23T20:40:36.682Z,9.75
2022-10-23T20:43:04.270Z,10.43
2022-10-23T20:45:30.978Z,10.63
2022-10-23T20:48:01.208Z,10.38
2022-10-23T20:50:28.766Z,10.88
2022-10-23T20:52:55.486Z,10.88
2022-10-23T20:55:22.154Z,10.85
2022-10-23T20:57:49.060Z,11.55
2022-10-23T21:00:16.379Z,11.02
2022-10-23T21:02:47.006Z,10.98
2022-10-23T21:05:15.386Z,11.27
2022-10-23T21:07:41.929Z,11.45
2022-10-23T21:10:08.814Z,11.18
2022-10-23T21:12:35.468Z,12.55
2022-10-23T21:15:02.279Z,12.13
2022-10-23T21:17:35.288Z,10.45
2022-10-23T21:20:02.302Z,10.10
2022-10-23T21:22:28.953Z,10.23
2022-10-23T21:24:56.913Z,12.38
2022-10-23T21:27:23.649Z,10.13
2022-10-23T21:29:50.309Z,9.13
2022-10-23T21:32:16.902Z,9.88
2022-10-23T21:34:43.506Z,9.73
2022-10-23T21:37:14.528Z,9.57
2022-10-23T21:39:45.838Z,8.02
2022-10-23T21:42:14.127Z,7.88
2022-10-23T21:44:40.848Z,7.78
2022-10-23T21:47:07.420Z,7.90
2022-10-23T21:49:34.107Z,7.20
2022-10-23T21:52:00.805Z,7.00
2022-10-23T21:54:27.481Z,7.60
2022-10-23T21:56:54.736Z,7.35
2022-10-23T21:59:25.898Z,7.60
2022-10-23T22:01:54.742Z,7.72
2022-10-23T22:04:22.047Z,8.07
2022-10-23T22:06:49.812Z,7.95
2022-10-23T22:09:19.504Z,8.43
2022-10-23T22:11:47.893Z,8.50
2022-10-23T22:14:14.460Z,8.40
2022-10-23T22:16:42.016Z,9.80
2022-10-23T22:19:11.535Z,10.18
2022-10-23T22:21:38.185Z,9.93
2022-10-23T22:24:04.989Z,10.55
2022-10-23T22:26:40.552Z,9.35
2022-10-23T22:29:09.782Z,10.77
2022-10-23T22:31:37.241Z,10.60
2022-10-23T22:34:18.572Z,11.00
2022-10-23T22:36:54.580Z,10.30
2022-10-23T22:39:21.880Z,10.50
2022-10-23T22:41:48.530Z,10.70
2022-10-23T22:44:15.913Z,11.82
2022-10-23T22:46:43.214Z,11.18
2022-10-23T22:49:09.850Z,11.75
2022-10-23T22:51:38.460Z,10.77
2022-10-23T22:54:05.290Z,11.80
2022-10-23T22:56:32.012Z,11.38
2022-10-23T22:58:58.677Z,11.23
2022-10-23T23:01:29.418Z,10.57
2022-10-23T23:04:04.272Z,10.57
2022-10-23T23:06:43.884Z,9.85
2022-10-23T23:09:13.018Z,10.18
2022-10-23T23:11:51.383Z,10.10
2022-10-23T23:14:22.084Z,9.52
2022-10-23T23:16:50.802Z,10.45
2022-10-23T23:19:17.366Z,9.32
2022-10-23T23:21:43.912Z,9.32
2022-10-23T23:24:11.638Z,9.27
2022-10-23T23:26:38.228Z,9.20
2022-10-23T23:29:04.790Z,10.23
2022-10-23T23:31:31.616Z,9.55
2022-10-23T23:33:58.240Z,10.15
2022-10-23T23:36:27.395Z,11.52
2022-10-23T23:38:55.427Z,11.63
2022-10-23T23:41:22.648Z,11.02
2022-10-23T23:43:50.057Z,11.52
2022-10-23T23:46:17.593Z,12.85
2022-10-23T23:48:47.875Z,12.30
2022-10-23T23:51:16.094Z,11.75
2022-10-23T23:53:42.707Z,12.27
2022-10-23T23:56:09.289Z,11.48
2022-10-23T23:58:36.393Z,11.35
